createdAt,value
2019-01-03T00:05:03.847Z,99.90
2019-01-03T00:07:53.175Z,99.90
2019-01-03T00:10:48.599Z,99.90
2019-01-03T00:13:53.588Z,99.90
2019-01-03T00:16:42.892Z,99.90
2019-01-03T00:19:41.234Z,99.90
2019-01-03T00:22:39.424Z,99.90
2019-01-03T00:25:27.435Z,99.90
2019-01-03T00:28:18.515Z,99.90
2019-01-03T00:31:09.260Z,99.90
2019-01-03T00:34:06.147Z,99.90
2019-01-03T00:36:56.030Z,99.90
2019-01-03T00:39:44.204Z,99.90
2019-01-03T00:42:27.090Z,99.90
2019-01-03T00:45:25.680Z,99.90
2019-01-03T00:48:13.779Z,99.90
2019-01-03T00:53:53.859Z,99.90
2019-01-03T00:56:41.836Z,99.90
2019-01-03T00:59:30.332Z,99.90
2019-01-03T01:02:17.547Z,99.90
2019-01-03T01:05:21.323Z,99.90
2019-01-03T01:08:10.615Z,99.90
2019-01-03T01:11:02.687Z,99.90
2019-01-03T01:13:57.463Z,99.90
2019-01-03T01:16:52.767Z,99.90
2019-01-03T01:25:24.235Z,99.90
2019-01-03T01:28:11.768Z,99.90
2019-01-03T01:31:09.690Z,99.90
2019-01-03T01:33:57.544Z,99.90
2019-01-03T01:37:05.311Z,99.90
2019-01-03T01:39:53.575Z,99.90
2019-01-03T01:42:40.585Z,99.90
2019-01-03T01:45:32.567Z,99.90
2019-01-03T01:48:22.188Z,99.90
2019-01-03T01:51:10.119Z,99.90
2019-01-03T01:54:05.220Z,99.90
2019-01-03T01:57:00.280Z,99.90
2019-01-03T01:59:48.129Z,99.90
2019-01-03T02:02:36.233Z,99.90
2019-01-03T02:05:25.791Z,99.90
2019-01-03T02:08:20.792Z,99.90
2019-01-03T02:11:10.099Z,99.90
2019-01-03T02:14:00.752Z,99.90
2019-01-03T02:17:01.000Z,99.90
2019-01-03T02:20:03.459Z,99.90
2019-01-03T02:22:52.815Z,99.90
2019-01-03T02:28:32.065Z,99.90
2019-01-03T02:31:27.473Z,99.90
2019-01-03T02:34:15.758Z,99.90
2019-01-03T02:40:07.789Z,99.90
2019-01-03T02:42:55.796Z,99.90
2019-01-03T02:45:57.080Z,99.90
2019-01-03T02:48:50.671Z,99.90
2019-01-03T02:51:41.201Z,99.90
2019-01-03T02:54:29.363Z,99.90
2019-01-03T02:57:33.760Z,99.90
2019-01-03T03:03:14.780Z,99.90
2019-01-03T03:06:04.739Z,99.90
2019-01-03T03:09:06.174Z,99.90
2019-01-03T03:12:03.015Z,99.90
2019-01-03T03:14:50.789Z,99.90
2019-01-03T03:17:39.247Z,99.90
2019-01-03T03:20:29.670Z,99.90
2019-01-03T03:23:26.904Z,99.90
2019-01-03T03:26:28.249Z,99.90
2019-01-03T03:29:29.036Z,99.90
2019-01-03T03:32:17.168Z,99.90
2019-01-03T03:35:16.145Z,99.90
2019-01-03T03:40:52.311Z,99.90
2019-01-03T03:43:41.048Z,99.90
2019-01-03T03:46:29.025Z,99.90
2019-01-03T03:49:16.909Z,99.90
2019-01-03T03:55:00.229Z,99.90
2019-01-03T03:57:48.278Z,99.90
2019-01-03T04:00:40.842Z,99.90
2019-01-03T04:03:28.899Z,99.90
2019-01-03T04:06:27.321Z,99.90
2019-01-03T04:09:28.655Z,99.90
2019-01-03T04:12:24.129Z,99.90
2019-01-03T04:15:16.411Z,99.90
2019-01-03T04:18:04.799Z,99.90
2019-01-03T04:21:00.197Z,99.90
2019-01-03T04:24:01.975Z,99.90
2019-01-03T04:26:44.808Z,99.90
2019-01-03T04:32:25.835Z,99.90
2019-01-03T04:41:10.075Z,99.90
2019-01-03T04:44:02.482Z,99.90
2019-01-03T04:47:00.616Z,99.90
2019-01-03T04:49:50.122Z,99.90
2019-01-03T04:52:42.295Z,99.90
2019-01-03T04:55:49.987Z,99.90
2019-01-03T04:58:38.015Z,99.90
2019-01-03T05:02:16.086Z,99.90
2019-01-03T05:04:56.595Z,99.90
2019-01-03T05:07:57.436Z,99.90
2019-01-03T05:11:02.512Z,99.90
2019-01-03T05:13:52.792Z,99.90
2019-01-03T05:16:54.445Z,99.90
2019-01-03T05:19:43.798Z,99.90
2019-01-03T05:22:51.544Z,99.90
2019-01-03T05:25:44.541Z,99.90
2019-01-03T05:28:44.687Z,99.90
2019-01-03T05:31:32.640Z,99.90
2019-01-03T05:34:22.387Z,99.90
2019-01-03T05:37:15.481Z,99.90
2019-01-03T05:40:10.816Z,99.90
2019-01-03T05:43:09.347Z,99.90
2019-01-03T05:46:07.260Z,99.90
2019-01-03T05:51:48.372Z,99.90
2019-01-03T05:54:43.692Z,99.90
2019-01-03T05:57:36.132Z,99.90
2019-01-03T06:00:24.620Z,99.90
2019-01-03T06:03:24.656Z,99.90
2019-01-03T06:06:31.921Z,99.90
2019-01-03T06:09:27.360Z,99.90
2019-01-03T06:12:28.832Z,99.90
2019-01-03T06:15:36.374Z,99.90
2019-01-03T06:21:22.408Z,99.90
2019-01-03T06:24:14.246Z,99.90
2019-01-03T06:27:02.273Z,99.90
2019-01-03T06:29:53.099Z,99.90
2019-01-03T06:32:53.095Z,99.90
2019-01-03T06:35:52.034Z,99.90
2019-01-03T06:38:42.444Z,99.90
2019-01-03T06:41:40.488Z,99.90
2019-01-03T06:44:30.104Z,99.90
2019-01-03T06:47:18.863Z,99.90
2019-01-03T06:50:13.843Z,99.90
2019-01-03T06:53:02.104Z,99.90
2019-01-03T06:55:57.304Z,99.90
2019-01-03T06:58:49.589Z,99.90
2019-01-03T07:01:41.673Z,99.90
2019-01-03T07:04:29.375Z,99.90
2019-01-03T07:07:21.738Z,99.90
2019-01-03T07:13:03.539Z,99.90
2019-01-03T07:15:52.795Z,99.90
2019-01-03T07:18:42.347Z,99.90
2019-01-03T07:21:46.878Z,99.90
2019-01-03T07:24:48.449Z,99.90
2019-01-03T07:27:37.857Z,99.90
2019-01-03T07:30:39.269Z,99.90
2019-01-03T07:33:35.768Z,99.90
2019-01-03T07:36:37.643Z,99.90
2019-01-03T07:39:28.045Z,99.90
2019-01-03T07:42:20.004Z,99.90
2019-01-03T07:48:00.294Z,99.90
2019-01-03T07:50:52.044Z,99.90
2019-01-03T07:53:55.902Z,99.90
2019-01-03T07:57:04.232Z,99.90
2019-01-03T07:59:54.890Z,99.90
2019-01-03T08:02:49.684Z,99.90
2019-01-03T08:08:35.483Z,99.90
2019-01-03T08:11:27.174Z,99.90
2019-01-03T08:14:34.074Z,99.90
2019-01-03T08:17:30.304Z,99.90
2019-01-03T08:20:18.853Z,99.90
2019-01-03T08:26:11.232Z,99.90
2019-01-03T08:28:58.956Z,99.90
2019-01-03T08:31:47.007Z,99.90
2019-01-03T08:34:32.996Z,99.90
2019-01-03T08:37:22.368Z,99.90
2019-01-03T08:43:02.627Z,99.90
2019-01-03T08:45:55.599Z,99.90
2019-01-03T08:49:00.378Z,99.90
2019-01-03T08:51:54.936Z,99.90
2019-01-03T08:55:01.666Z,99.90
2019-01-03T08:58:09.100Z,99.90
2019-01-03T09:01:07.450Z,99.90
2019-01-03T09:03:56.320Z,99.90
2019-01-03T09:06:48.964Z,99.90
2019-01-03T09:09:50.262Z,99.90
2019-01-03T09:12:41.769Z,99.90
2019-01-03T09:15:33.892Z,99.90
2019-01-03T09:18:31.429Z,99.90
2019-01-03T09:21:37.033Z,99.90
2019-01-03T09:24:32.923Z,99.90
2019-01-03T09:27:24.136Z,99.90
2019-01-03T09:30:27.273Z,99.90
2019-01-03T09:33:28.217Z,99.90
2019-01-03T09:36:16.256Z,99.90
2019-01-03T09:39:09.218Z,99.90
2019-01-03T09:41:58.683Z,99.90
2019-01-03T09:44:46.285Z,99.90
2019-01-03T09:51:17.239Z,99.90
2019-01-03T09:53:47.620Z,86.60
2019-01-03T09:56:18.049Z,84.10
2019-01-03T09:58:48.404Z,77.80
2019-01-03T10:01:18.780Z,74.80
2019-01-03T10:03:49.171Z,84.60
2019-01-03T10:06:19.651Z,85.80
2019-01-03T10:08:49.995Z,82.80
2019-01-03T10:11:20.759Z,73.50
2019-01-03T10:13:51.552Z,66.30
2019-01-03T10:16:21.987Z,60.00
2019-01-03T10:18:52.404Z,59.00
2019-01-03T10:21:22.827Z,56.80
2019-01-03T10:23:54.291Z,63.00
2019-01-03T10:26:24.640Z,69.70
2019-01-03T10:28:55.024Z,65.40
2019-01-03T10:31:25.407Z,64.40
2019-01-03T10:33:56.116Z,70.00
2019-01-03T10:36:27.466Z,79.50
2019-01-03T10:38:58.119Z,67.00
2019-01-03T10:41:28.784Z,66.20
2019-01-03T10:43:59.208Z,63.10
2019-01-03T10:46:29.572Z,56.20
2019-01-03T10:49:00.040Z,55.10
2019-01-03T10:51:30.396Z,52.80
2019-01-03T10:54:00.785Z,54.90
2019-01-03T10:56:31.159Z,62.60
2019-01-03T10:59:01.634Z,97.40
2019-01-03T11:02:15.851Z,99.90
2019-01-03T11:05:49.072Z,99.90
2019-01-03T11:08:21.970Z,97.20
2019-01-03T11:10:52.436Z,96.50
2019-01-03T11:13:57.825Z,99.60
2019-01-03T11:16:30.944Z,99.90
2019-01-03T11:19:01.784Z,99.90
2019-01-03T11:21:32.282Z,99.90
2019-01-03T11:24:04.724Z,99.90
2019-01-03T11:26:35.209Z,99.90
2019-01-03T11:29:07.654Z,99.90
2019-01-03T11:31:40.600Z,99.90
2019-01-03T11:34:12.545Z,99.90
2019-01-03T11:36:43.552Z,99.90
2019-01-03T11:41:47.989Z,99.90
2019-01-03T11:44:19.847Z,99.90
2019-01-03T11:46:50.282Z,99.90
2019-01-03T11:49:20.780Z,99.90
2019-01-03T11:51:51.767Z,99.90
2019-01-03T11:54:25.842Z,99.90
2019-01-03T11:57:00.556Z,99.90
2019-01-03T11:59:34.104Z,99.90
2019-01-03T12:02:05.508Z,99.90
2019-01-03T12:04:38.730Z,99.90
2019-01-03T12:07:11.709Z,99.90
2019-01-03T12:09:43.049Z,99.90
2019-01-03T12:12:18.209Z,99.90
2019-01-03T12:14:49.212Z,99.90
2019-01-03T12:17:21.451Z,99.90
2019-01-03T12:19:52.900Z,99.90
2019-01-03T12:22:24.358Z,99.90
2019-01-03T12:24:55.442Z,99.90
2019-01-03T12:27:26.817Z,99.90
2019-01-03T12:29:59.088Z,99.90
2019-01-03T12:32:29.683Z,99.90
2019-01-03T12:37:32.866Z,99.90
2019-01-03T12:40:09.437Z,99.90
2019-01-03T12:42:40.943Z,99.90
2019-01-03T12:45:13.541Z,99.90
2019-01-03T12:47:45.125Z,99.90
2019-01-03T12:50:16.220Z,99.90
2019-01-03T12:52:48.809Z,99.90
2019-01-03T12:55:22.321Z,99.90
2019-01-03T12:57:59.394Z,99.90
2019-01-03T13:03:03.960Z,99.90
2019-01-03T13:05:56.008Z,99.90
2019-01-03T13:08:27.834Z,99.90
2019-01-03T13:11:07.917Z,99.90
2019-01-03T13:13:44.387Z,99.90
2019-01-03T13:16:14.918Z,99.90
2019-01-03T13:18:46.309Z,99.90
2019-01-03T13:21:23.398Z,99.90
2019-01-03T13:23:55.007Z,99.90
2019-01-03T13:26:28.641Z,99.90
2019-01-03T13:28:59.214Z,99.90
2019-01-03T13:31:30.192Z,99.90
2019-01-03T13:34:09.892Z,99.90
2019-01-03T13:36:43.925Z,99.90
2019-01-03T13:39:23.395Z,99.90
2019-01-03T13:42:11.860Z,99.90
2019-01-03T13:44:48.253Z,99.90
2019-01-03T13:47:20.687Z,99.90
2019-01-03T13:50:02.016Z,99.90
2019-01-03T13:52:33.205Z,99.90
2019-01-03T13:55:12.258Z,99.90
2019-01-03T13:57:43.280Z,99.90
2019-01-03T14:00:15.116Z,99.90
2019-01-03T14:02:46.500Z,99.90
2019-01-03T14:05:18.332Z,99.90
2019-01-03T14:07:48.804Z,99.90
2019-01-03T14:10:20.453Z,99.90
2019-01-03T14:12:54.271Z,99.90
2019-01-03T14:15:27.552Z,99.90
2019-01-03T14:17:59.505Z,99.90
2019-01-03T14:20:34.337Z,99.90
2019-01-03T14:23:17.669Z,99.90
2019-01-03T14:25:53.941Z,99.90
2019-01-03T14:28:28.326Z,99.90
2019-01-03T14:31:06.071Z,99.90
2019-01-03T14:33:58.091Z,99.90
2019-01-03T14:36:33.404Z,99.90
2019-01-03T14:39:08.553Z,99.90
2019-01-03T14:41:47.357Z,99.90
2019-01-03T14:44:20.493Z,99.90
2019-01-03T14:47:01.876Z,99.90
2019-01-03T14:49:46.876Z,99.90
2019-01-03T14:52:20.581Z,99.90
2019-01-03T14:54:50.999Z,99.90
2019-01-03T14:57:32.771Z,99.90
2019-01-03T15:00:09.079Z,99.90
2019-01-03T15:02:47.506Z,99.90
2019-01-03T15:05:22.760Z,99.90
2019-01-03T15:08:06.146Z,99.90
2019-01-03T15:10:41.807Z,99.90
2019-01-03T15:13:23.004Z,99.90
2019-01-03T15:15:54.305Z,99.90
2019-01-03T15:18:30.239Z,99.90
2019-01-03T15:21:03.720Z,99.90
2019-01-03T15:23:36.732Z,99.90
2019-01-03T15:26:10.090Z,99.90
2019-01-03T15:28:44.638Z,99.90
2019-01-03T15:31:36.060Z,99.90
2019-01-03T15:34:23.475Z,99.90
2019-01-03T15:36:56.348Z,99.90
2019-01-03T15:39:27.879Z,99.90
2019-01-03T15:41:58.325Z,99.90
2019-01-03T15:44:37.209Z,99.90
2019-01-03T15:47:08.859Z,99.90
2019-01-03T15:49:43.828Z,99.90
2019-01-03T15:52:17.781Z,99.90
2019-01-03T15:54:48.256Z,99.90
2019-01-03T15:59:49.868Z,99.90
2019-01-03T16:07:34.721Z,99.90
2019-01-03T16:10:08.703Z,99.90
2019-01-03T16:12:39.563Z,99.90
2019-01-03T16:15:09.956Z,99.90
2019-01-03T16:20:10.092Z,99.90
2019-01-03T16:22:45.061Z,99.90
2019-01-03T16:25:19.462Z,99.90
2019-01-03T16:32:58.107Z,99.90
2019-01-03T16:35:29.214Z,99.90
2019-01-03T16:38:00.131Z,99.90
2019-01-03T16:40:30.895Z,99.90
2019-01-03T16:43:01.267Z,99.90
2019-01-03T16:48:01.395Z,99.90
2019-01-03T16:50:32.965Z,99.90
2019-01-03T16:53:03.405Z,99.90
2019-01-03T16:55:36.419Z,99.90
2019-01-03T17:00:46.620Z,99.90
2019-01-03T17:03:17.384Z,99.90
2019-01-03T17:05:47.856Z,99.90
2019-01-03T17:08:18.216Z,99.90
2019-01-03T17:10:50.503Z,99.90
2019-01-03T17:13:20.987Z,99.90
2019-01-03T17:15:51.459Z,99.90
2019-01-03T17:18:21.847Z,99.90
2019-01-03T17:20:52.281Z,99.90
2019-01-03T17:23:22.759Z,99.90
2019-01-03T17:25:53.202Z,99.90
2019-01-03T17:28:24.408Z,99.90
2019-01-03T17:30:55.015Z,99.90
2019-01-03T17:33:25.512Z,99.90
2019-01-03T17:35:55.935Z,99.90
2019-01-03T17:38:29.673Z,99.90
2019-01-03T17:41:00.155Z,99.90
2019-01-03T17:43:30.791Z,99.90
2019-01-03T17:46:02.488Z,99.90
2019-01-03T17:48:32.912Z,99.90
2019-01-03T17:51:03.347Z,99.90
2019-01-03T17:53:33.843Z,99.90
2019-01-03T17:56:04.558Z,99.90
2019-01-03T17:58:35.099Z,99.90
2019-01-03T18:01:05.607Z,99.90
2019-01-03T18:03:36.235Z,99.90
2019-01-03T18:08:36.735Z,99.90
2019-01-03T18:11:08.569Z,99.90
2019-01-03T18:13:47.044Z,99.90
2019-01-03T18:16:17.484Z,99.90
2019-01-03T18:18:58.351Z,99.90
2019-01-03T18:21:35.097Z,99.90
2019-01-03T18:26:36.279Z,99.90
2019-01-03T18:29:06.735Z,99.90
2019-01-03T18:31:38.231Z,99.90
2019-01-03T18:34:08.699Z,99.90
2019-01-03T18:36:39.192Z,99.90
2019-01-03T18:39:09.936Z,99.90
2019-01-03T18:41:40.700Z,99.90
2019-01-03T18:44:11.631Z,99.90
2019-01-03T18:46:41.987Z,99.90
2019-01-03T18:49:15.301Z,99.90
2019-01-03T18:51:45.792Z,99.90
2019-01-03T18:54:16.247Z,99.90
2019-01-03T18:59:17.432Z,99.90
2019-01-03T19:01:49.296Z,99.90
2019-01-03T19:06:49.407Z,99.90
2019-01-03T19:26:59.179Z,99.90
2019-01-03T19:29:30.558Z,99.90
2019-01-03T19:37:21.571Z,99.90
2019-01-03T19:39:52.755Z,99.90
2019-01-03T19:44:52.859Z,99.90
2019-01-03T19:47:23.348Z,99.90
2019-01-03T19:49:53.783Z,99.90
2019-01-03T20:05:43.616Z,99.90
2019-01-03T20:28:07.367Z,99.90
2019-01-03T20:30:38.351Z,99.90
2019-01-03T20:33:15.859Z,99.90
2019-01-03T20:35:46.536Z,99.90
2019-01-03T20:38:18.614Z,99.90
2019-01-03T20:45:48.519Z,99.90
2019-01-03T20:48:19.212Z,99.90
2019-01-03T20:50:53.216Z,99.90
2019-01-03T20:54:20.061Z,99.90
2019-01-03T20:56:50.527Z,99.90
2019-01-03T20:59:20.911Z,99.90
2019-01-03T21:01:52.917Z,99.90
2019-01-03T21:04:23.399Z,99.90
2019-01-03T21:06:53.740Z,99.90
2019-01-03T21:11:53.715Z,99.90
2019-01-03T21:14:25.429Z,99.90
2019-01-03T21:16:56.190Z,99.90
2019-01-03T21:19:27.851Z,99.90
2019-01-03T21:21:58.264Z,99.90
2019-01-03T21:24:28.642Z,99.90
2019-01-03T21:26:59.084Z,99.90
2019-01-03T21:29:29.488Z,99.90
2019-01-03T21:34:29.508Z,99.90
2019-01-03T21:39:46.524Z,99.90
2019-01-03T21:42:16.995Z,99.90
2019-01-03T21:44:47.463Z,99.90
2019-01-03T21:49:47.512Z,99.90
2019-01-03T21:52:17.896Z,99.90
2019-01-03T21:54:48.341Z,99.90
2019-01-03T21:57:18.820Z,99.90
2019-01-03T21:59:49.173Z,99.90
2019-01-03T22:02:19.551Z,99.90
2019-01-03T22:04:52.674Z,99.90
2019-01-03T22:07:23.227Z,99.90
2019-01-03T22:09:53.579Z,99.90
2019-01-03T22:14:53.579Z,99.90
2019-01-03T22:17:23.963Z,99.90
2019-01-03T22:19:54.311Z,99.90
2019-01-03T22:22:24.701Z,99.90
2019-01-03T22:27:31.202Z,99.90
2019-01-03T22:30:05.003Z,99.90
2019-01-03T22:38:47.932Z,99.90
2019-01-03T22:41:34.113Z,99.90
2019-01-03T22:47:31.493Z,99.90
2019-01-03T22:50:13.557Z,99.90
2019-01-03T22:52:49.768Z,99.90
2019-01-03T22:55:17.093Z,99.90
2019-01-03T22:57:47.977Z,99.90
2019-01-03T23:01:11.326Z,99.90
2019-01-03T23:06:22.716Z,99.90
2019-01-03T23:08:53.620Z,99.90
2019-01-03T23:11:24.926Z,99.90
2019-01-03T23:13:55.363Z,99.90
2019-01-03T23:19:05.816Z,99.90
2019-01-03T23:24:21.960Z,99.90
2019-01-03T23:26:59.376Z,99.90
2019-01-03T23:29:29.769Z,99.90
2019-01-03T23:32:22.304Z,99.90
2019-01-03T23:34:52.751Z,99.90
2019-01-03T23:37:24.168Z,99.90
2019-01-03T23:39:55.027Z,99.90
2019-01-03T23:42:25.880Z,99.90
2019-01-03T23:45:24.693Z,99.90
2019-01-03T23:47:59.660Z,99.90
2019-01-03T23:50:32.691Z,99.90
2019-01-03T23:53:03.148Z,99.90
2019-01-03T23:55:44.571Z,99.90
2019-01-03T23:58:14.925Z,99.90
